Time;durP1;ratioP1;P1;durP2;ratioP2;P2;SDS_P1;SDS_P2;PMS_P1;PMS_P2;Temp;Humidity;BMP_temperature;BMP_pressure;BME280_temperature;BME280_humidity;BME280_pressure;Samples;Min_cycle;Max_cycle;Signal;HPM_P1;HPM_P2
2021/09/12 00:00:43;;;;;;;8.30;6.97;;;16.00;99.90;;;16.86;97.94;98186.75;5244888;28;20707;-61
2021/09/12 00:03:17;;;;;;;7.65;6.88;;;16.10;99.90;;;16.94;97.04;98187.94;5232283;28;20627;-61
2021/09/12 00:05:51;;;;;;;8.35;7.55;;;16.10;99.90;;;17.00;97.00;98192.44;5249195;28;20245;-60
2021/09/12 00:08:24;;;;;;;8.18;7.38;;;16.20;99.90;;;17.02;97.44;98191.66;5231936;28;20195;-61
2021/09/12 00:10:57;;;;;;;7.88;7.18;;;16.20;99.90;;;16.99;97.08;98186.38;5229718;28;20316;-60
2021/09/12 00:13:30;;;;;;;7.75;7.15;;;16.20;99.90;;;17.01;97.19;98179.56;5250436;28;20279;-61
2021/09/12 00:16:04;;;;;;;6.82;6.25;;;16.20;99.90;;;17.02;97.19;98183.91;5249985;28;20243;-60
2021/09/12 00:18:38;;;;;;;7.15;6.53;;;16.30;99.90;;;17.04;97.54;98187.44;5233851;28;20319;-61
2021/09/12 00:21:11;;;;;;;7.32;6.60;;;16.30;99.90;;;17.10;97.78;98190.22;5246290;28;20743;-61
2021/09/12 00:23:44;;;;;;;8.93;8.02;;;16.40;99.90;;;17.13;96.72;98188.59;5229931;28;20189;-61
2021/09/12 00:26:17;;;;;;;8.68;7.45;;;16.40;99.90;;;17.13;96.35;98188.59;5232214;28;20573;-61
2021/09/12 00:28:51;;;;;;;8.25;7.45;;;16.30;99.90;;;17.11;96.68;98180.78;5248960;28;20544;-60
2021/09/12 00:31:24;;;;;;;9.27;7.60;;;16.30;99.90;;;17.10;96.82;98185.06;5244173;28;20221;-61
2021/09/12 00:33:58;;;;;;;9.23;7.75;;;16.30;99.90;;;17.09;96.79;98180.72;5239972;28;20292;-60
2021/09/12 00:36:31;;;;;;;10.75;8.73;;;16.30;99.90;;;17.07;97.24;98179.78;5242861;28;20200;-61
2021/09/12 00:39:05;;;;;;;9.48;8.40;;;16.30;99.90;;;17.06;97.75;98188.38;5234811;28;20680;-61
2021/09/12 00:41:39;;;;;;;9.57;8.05;;;16.30;99.90;;;17.07;96.73;98190.13;5234675;28;20213;-60
2021/09/12 00:44:13;;;;;;;11.93;9.20;;;16.20;99.90;;;17.04;97.16;98187.44;5235411;28;20201;-61
2021/09/12 00:46:48;;;;;;;11.45;9.38;;;16.20;99.90;;;17.03;97.22;98193.44;5240696;28;20200;-61
2021/09/12 00:49:22;;;;;;;11.25;9.80;;;16.20;99.90;;;16.96;97.57;98194.00;5239188;28;20199;-61
2021/09/12 00:51:56;;;;;;;13.10;8.77;;;16.20;99.90;;;16.99;97.42;98185.50;5242461;28;20247;-61
2021/09/12 00:54:30;;;;;;;10.88;9.38;;;16.20;99.90;;;17.00;98.76;98188.16;5246453;28;20196;-61
2021/09/12 00:57:07;;;;;;;12.77;10.70;;;16.20;99.90;;;17.10;98.38;98195.41;5243079;28;20200;-61
2021/09/12 00:59:43;;;;;;;12.40;9.80;;;16.20;99.90;;;17.11;97.96;98186.84;5241234;28;20204;-60
2021/09/12 01:02:19;;;;;;;14.07;9.35;;;16.20;99.90;;;17.09;97.80;98182.44;5242001;28;20215;-61
2021/09/12 01:04:54;;;;;;;15.10;9.82;;;16.20;99.90;;;17.07;98.57;98192.72;5244221;28;20200;-61
2021/09/12 01:07:27;;;;;;;12.40;10.05;;;16.20;99.90;;;17.07;98.50;98184.97;5238673;28;20208;-59
2021/09/12 01:10:00;;;;;;;12.45;9.38;;;16.20;99.90;;;17.06;98.67;98188.38;5237743;28;20197;-61
2021/09/12 01:12:35;;;;;;;12.93;10.52;;;16.10;99.90;;;17.07;98.93;98187.53;5243775;28;20288;-61
2021/09/12 01:15:09;;;;;;;13.77;9.65;;;16.10;99.90;;;17.05;99.21;98186.63;5241971;28;20192;-61
2021/09/12 01:17:42;;;;;;;15.82;10.05;;;16.20;99.90;;;17.00;99.56;98183.00;5241464;28;20256;-60
2021/09/12 01:20:16;;;;;;;12.15;9.60;;;16.10;99.90;;;16.99;100.00;98183.78;5238830;28;20225;-61
2021/09/12 01:22:50;;;;;;;9.73;8.63;;;16.10;99.90;;;17.01;100.00;98171.81;5243338;28;20206;-60
2021/09/12 01:25:25;;;;;;;12.45;8.55;;;16.10;99.90;;;16.99;99.70;98172.59;5241302;28;20204;-61
2021/09/12 01:27:58;;;;;;;9.63;8.40;;;16.00;99.90;;;16.93;100.00;98175.81;5235345;28;20206;-59
2021/09/12 01:30:31;;;;;;;17.40;8.98;;;15.90;99.90;;;16.86;100.00;98169.56;5239207;28;20225;-61
2021/09/12 01:33:04;;;;;;;16.85;9.90;;;15.90;99.90;;;16.76;100.00;98166.53;5235747;28;20197;-56
2021/09/12 01:35:37;;;;;;;12.52;9.50;;;16.00;99.90;;;16.75;100.00;98164.78;5233497;28;20294;-57
2021/09/12 01:38:11;;;;;;;10.23;8.90;;;15.90;99.90;;;16.73;100.00;98161.25;5232039;28;20198;-54
2021/09/12 01:40:45;;;;;;;15.95;9.95;;;15.90;99.90;;;16.71;100.00;98170.63;5238594;28;20224;-56
2021/09/12 01:43:20;;;;;;;17.08;10.23;;;15.90;99.90;;;16.64;100.00;98162.66;5232925;28;20200;-55
2021/09/12 01:45:53;;;;;;;13.45;9.77;;;15.90;99.90;;;16.62;100.00;98164.31;5232870;28;20201;-58
2021/09/12 01:48:27;;;;;;;16.63;9.95;;;15.80;99.90;;;16.62;100.00;98158.25;5237414;28;20201;-56
2021/09/12 01:51:01;;;;;;;10.93;9.40;;;15.80;99.90;;;16.58;100.00;98162.44;5232526;28;20208;-59
2021/09/12 01:53:34;;;;;;;9.85;8.65;;;15.80;99.90;;;16.52;100.00;98162.22;5239401;28;20196;-54
2021/09/12 01:56:09;;;;;;;9.65;8.68;;;15.70;99.90;;;16.54;100.00;98160.56;5233733;28;20216;-53
2021/09/12 01:58:42;;;;;;;12.45;9.70;;;15.70;99.90;;;16.57;100.00;98164.97;5240219;28;20574;-54
2021/09/12 02:01:15;;;;;;;11.60;9.60;;;15.80;99.90;;;16.57;100.00;98171.00;5235507;28;20225;-54
2021/09/12 02:03:49;;;;;;;8.93;8.05;;;15.80;99.90;;;16.56;100.00;98164.06;5239118;28;20522;-58
2021/09/12 02:06:22;;;;;;;9.75;8.82;;;15.80;99.90;;;16.58;100.00;98159.84;5234623;28;20624;-54
2021/09/12 02:08:55;;;;;;;10.10;9.27;;;15.80;99.90;;;16.65;100.00;98153.22;5241095;28;20201;-59
2021/09/12 02:11:30;;;;;;;10.30;9.30;;;15.80;99.90;;;16.69;100.00;98154.22;5235884;28;20233;-56
2021/09/12 02:14:03;;;;;;;9.15;8.32;;;15.70;99.90;;;16.65;100.00;98156.69;5236775;28;20225;-51
2021/09/12 02:16:36;;;;;;;9.00;8.10;;;15.70;99.90;;;16.59;100.00;98163.31;5233246;28;20232;-57
2021/09/12 02:19:09;;;;;;;11.05;9.43;;;15.70;99.90;;;16.59;100.00;98164.19;5241404;28;20197;-57
2021/09/12 02:21:42;;;;;;;10.82;9.32;;;15.80;99.90;;;16.59;100.00;98164.19;5238044;28;20230;-56
2021/09/12 02:24:15;;;;;;;10.35;9.35;;;15.80;99.90;;;16.59;100.00;98159.03;5243289;28;20207;-53
2021/09/12 02:26:49;;;;;;;11.15;9.82;;;15.70;99.90;;;16.54;100.00;98159.66;5242853;28;20197;-56
2021/09/12 02:29:22;;;;;;;11.63;10.48;;;15.70;99.90;;;16.48;100.00;98162.00;5243695;28;20230;-57
2021/09/12 02:31:55;;;;;;;10.32;9.23;;;15.70;99.90;;;16.46;100.00;98156.81;5245869;28;20221;-57
2021/09/12 02:34:29;;;;;;;12.00;10.70;;;15.70;99.90;;;16.42;100.00;98157.50;5242616;28;20199;-54
2021/09/12 02:37:02;;;;;;;9.27;8.38;;;15.60;99.90;;;16.42;100.00;98157.50;5238038;28;20196;-57
2021/09/12 02:39:35;;;;;;;9.07;8.27;;;15.60;99.90;;;16.47;100.00;98161.13;5240468;28;20231;-52
2021/09/12 02:42:09;;;;;;;9.85;8.85;;;15.60;99.90;;;16.47;100.00;98148.25;5242586;28;20588;-54
2021/09/12 02:44:42;;;;;;;10.55;9.45;;;15.60;99.90;;;16.47;100.00;98153.41;5236563;28;20240;-57
2021/09/12 02:47:16;;;;;;;11.82;8.88;;;15.60;99.90;;;16.47;100.00;98153.41;5239878;28;20688;-52
2021/09/12 02:49:49;;;;;;;9.40;8.60;;;15.60;99.90;;;16.44;100.00;98158.44;5235495;28;20561;-54
2021/09/12 02:52:22;;;;;;;9.60;8.80;;;15.50;99.90;;;16.37;100.00;98149.59;5228230;28;20394;-54
2021/09/12 02:54:55;;;;;;;14.10;9.40;;;15.60;99.90;;;16.42;100.00;98155.81;5240721;28;20201;-56
2021/09/12 02:57:29;;;;;;;9.10;8.00;;;15.60;99.90;;;16.35;100.00;98140.91;5228433;28;20576;-55
2021/09/12 03:00:03;;;;;;;8.30;7.60;;;15.50;99.90;;;16.33;100.00;98149.41;5239806;28;20220;-56
2021/09/12 03:02:36;;;;;;;8.82;8.05;;;15.40;99.90;;;16.33;100.00;98160.59;5235463;28;20204;-54
2021/09/12 03:05:10;;;;;;;9.40;8.60;;;15.50;99.90;;;16.31;100.00;98151.03;5236002;28;20197;-57
2021/09/12 03:07:43;;;;;;;9.45;8.65;;;15.50;99.90;;;16.30;100.00;98151.88;5235617;28;20199;-59
2021/09/12 03:10:16;;;;;;;9.90;9.00;;;15.50;99.90;;;16.27;100.00;98155.19;5240959;28;20224;-57
2021/09/12 03:12:50;;;;;;;9.88;8.75;;;15.60;99.90;;;16.30;100.00;98155.31;5238456;28;20205;-56
2021/09/12 03:15:24;;;;;;;8.88;8.18;;;15.60;99.90;;;16.34;100.00;98157.22;5235263;28;20199;-56
2021/09/12 03:17:58;;;;;;;9.10;8.30;;;15.60;99.90;;;16.37;100.00;98157.34;5238263;28;20193;-56
2021/09/12 03:20:31;;;;;;;9.77;8.88;;;15.60;99.90;;;16.46;99.38;98154.22;5236066;28;20239;-54
2021/09/12 03:23:04;;;;;;;9.35;8.45;;;15.50;99.90;;;16.46;98.76;98155.94;5239711;28;20200;-56
2021/09/12 03:25:37;;;;;;;12.70;9.15;;;15.50;99.90;;;16.35;99.66;98160.69;5234025;28;20197;-56
2021/09/12 03:28:12;;;;;;;10.20;9.20;;;15.50;99.90;;;16.31;100.00;98163.94;5229166;28;20201;-52
2021/09/12 03:30:45;;;;;;;9.32;8.52;;;15.50;99.90;;;16.30;100.00;98157.03;5227051;28;20227;-54
2021/09/12 03:33:18;;;;;;;10.52;9.52;;;15.50;99.90;;;16.31;100.00;98158.78;5230476;28;20254;-62
2021/09/12 03:35:51;;;;;;;9.10;8.40;;;15.50;99.90;;;16.27;100.00;98157.78;5228450;28;20201;-61
2021/09/12 03:38:25;;;;;;;10.07;9.18;;;15.50;99.90;;;16.31;100.00;98161.34;5230903;28;20204;-57
2021/09/12 03:40:58;;;;;;;10.45;9.50;;;15.50;99.90;;;16.35;99.71;98152.94;5233867;28;20619;-54
2021/09/12 03:43:33;;;;;;;11.65;9.88;;;15.50;99.90;;;16.30;100.00;98155.31;5228171;28;20198;-56
2021/09/12 03:46:06;;;;;;;10.85;9.90;;;15.50;99.90;;;16.16;99.79;98153.91;5230315;28;20200;-53
2021/09/12 03:48:39;;;;;;;11.48;9.77;;;15.30;99.90;;;16.15;100.00;98150.44;5239922;28;20251;-52
2021/09/12 03:51:12;;;;;;;13.75;9.95;;;15.30;99.90;;;16.14;100.00;98143.53;5226317;28;20216;-57
2021/09/12 03:53:45;;;;;;;13.27;9.50;;;15.40;99.90;;;16.07;100.00;98150.97;5233211;28;20252;-54
2021/09/12 03:56:18;;;;;;;10.52;9.43;;;15.30;99.90;;;16.06;100.00;98150.09;5236781;28;20561;-57
2021/09/12 03:58:52;;;;;;;8.90;8.10;;;15.30;99.90;;;16.10;100.00;98146.78;5227357;28;20193;-57
2021/09/12 04:01:25;;;;;;;10.00;9.00;;;15.20;99.90;;;16.11;100.00;98138.25;5230078;28;20234;-60
2021/09/12 04:03:59;;;;;;;10.40;8.90;;;15.30;99.90;;;16.05;100.00;98142.28;5225778;28;20197;-58
2021/09/12 04:06:32;;;;;;;10.45;9.45;;;15.20;99.90;;;16.05;100.00;98148.31;5235544;28;20197;-57
2021/09/12 04:09:05;;;;;;;9.48;8.68;;;15.30;99.90;;;16.04;100.00;98143.09;5233823;28;20220;-55
2021/09/12 04:11:38;;;;;;;9.10;8.40;;;15.20;99.90;;;16.06;100.00;98150.09;5224242;28;20221;-55
2021/09/12 04:14:13;;;;;;;9.93;9.02;;;15.30;99.90;;;16.08;100.00;98148.44;5231233;28;20197;-55
2021/09/12 04:16:46;;;;;;;9.50;8.70;;;15.30;99.90;;;16.07;100.00;98148.38;5233776;28;20590;-59
2021/09/12 04:19:19;;;;;;;9.05;8.35;;;15.30;99.90;;;16.09;100.00;98144.16;5233470;28;20206;-54
2021/09/12 04:21:52;;;;;;;10.52;9.52;;;15.30;99.90;;;16.11;100.00;98146.00;5233728;28;20632;-56
2021/09/12 04:24:25;;;;;;;9.45;8.65;;;15.30;99.90;;;16.13;99.46;98143.47;5228355;28;20204;-54
2021/09/12 04:26:58;;;;;;;9.68;8.88;;;15.30;99.90;;;16.13;98.83;98152.06;5227418;28;20196;-51
2021/09/12 04:29:33;;;;;;;10.60;9.57;;;15.30;99.90;;;16.09;98.96;98146.75;5235057;28;20197;-57
2021/09/12 04:32:07;;;;;;;9.82;9.00;;;15.30;99.90;;;16.05;98.77;98148.31;5237261;28;20215;-54
2021/09/12 04:34:43;;;;;;;9.32;8.52;;;15.20;99.90;;;16.04;98.98;98140.53;5232247;28;20658;-53
2021/09/12 04:37:16;;;;;;;9.93;9.02;;;15.20;99.90;;;15.97;98.56;98149.72;5232818;28;20206;-51
2021/09/12 04:39:49;;;;;;;9.90;9.10;;;15.10;99.90;;;15.95;98.93;98144.47;5246607;28;20195;-57
2021/09/12 04:42:22;;;;;;;10.32;9.43;;;15.20;99.90;;;15.91;98.43;98144.28;5240617;28;20592;-57
2021/09/12 04:44:57;;;;;;;9.82;8.93;;;15.10;99.90;;;15.88;98.78;98144.16;5246848;28;20398;-54
2021/09/12 04:47:30;;;;;;;11.45;10.35;;;15.10;99.90;;;15.77;98.95;98139.47;5228730;28;20283;-57
2021/09/12 04:50:04;;;;;;;10.85;9.85;;;15.00;99.90;;;15.77;99.50;98144.63;5244426;28;20192;-56
2021/09/12 04:52:37;;;;;;;10.30;9.30;;;15.00;99.90;;;15.82;99.61;98144.78;5231285;28;20247;-53
2021/09/12 04:55:11;;;;;;;10.95;9.95;;;15.10;99.90;;;15.93;99.71;98147.81;5245754;28;20197;-51
2021/09/12 04:57:44;;;;;;;10.63;9.63;;;15.20;99.90;;;15.93;100.00;98148.69;5237403;28;20189;-56
2021/09/12 05:00:19;;;;;;;10.70;9.70;;;15.20;99.90;;;16.01;100.00;98142.97;5238367;28;20201;-53
2021/09/12 05:02:52;;;;;;;8.40;7.70;;;15.20;99.90;;;16.03;99.84;98139.66;5246201;28;20218;-54
2021/09/12 05:05:26;;;;;;;10.20;9.32;;;15.30;99.90;;;16.11;99.20;98143.41;5235617;28;20201;-53
2021/09/12 05:08:00;;;;;;;10.50;9.50;;;15.30;99.90;;;16.16;98.59;98148.75;5236848;28;20288;-57
2021/09/12 05:10:34;;;;;;;10.80;9.85;;;15.30;99.90;;;16.20;98.19;98151.50;5228100;28;20212;-57
2021/09/12 05:13:07;;;;;;;10.10;9.20;;;15.30;99.90;;;16.18;97.51;98160.00;5240165;28;20193;-52
2021/09/12 05:15:43;;;;;;;10.65;9.65;;;15.30;99.90;;;16.16;97.83;98157.34;5245375;28;20203;-55
2021/09/12 05:18:16;;;;;;;9.65;8.88;;;15.30;99.90;;;16.15;97.75;98155.59;5241674;28;20204;-58
2021/09/12 05:20:49;;;;;;;10.85;9.88;;;15.30;99.90;;;16.17;97.48;98158.25;5239948;28;20246;-55
2021/09/12 05:23:28;;;;;;;10.90;9.90;;;15.30;99.90;;;16.22;97.81;98164.44;5235678;28;20243;-56
2021/09/12 05:26:01;;;;;;;9.10;8.35;;;15.30;99.90;;;16.16;98.31;98161.63;5243975;28;20675;-55
2021/09/12 05:28:35;;;;;;;10.52;9.60;;;15.30;99.90;;;16.14;98.29;98164.16;5238066;28;20210;-60
2021/09/12 05:31:10;;;;;;;10.05;9.15;;;15.30;99.90;;;16.15;98.05;98168.50;5243226;28;20585;-54
2021/09/12 05:33:43;;;;;;;14.60;9.88;;;15.30;99.90;;;15.99;97.56;98164.44;5243379;28;20326;-61
2021/09/12 05:36:17;;;;;;;9.80;9.00;;;15.20;99.90;;;16.01;97.91;98167.06;5241221;28;20204;-55
2021/09/12 05:38:50;;;;;;;10.90;9.35;;;15.20;99.90;;;15.96;97.41;98173.72;5233004;28;20199;-58
2021/09/12 05:41:23;;;;;;;9.80;9.00;;;15.10;99.90;;;15.91;98.28;98178.72;5236900;28;20254;-57
2021/09/12 05:43:56;;;;;;;9.15;8.45;;;15.10;99.90;;;16.01;98.27;98169.63;5237361;28;20743;-58
2021/09/12 05:46:32;;;;;;;9.80;8.98;;;15.20;99.90;;;16.12;98.19;98170.97;5241200;28;20203;-57
2021/09/12 05:49:05;;;;;;;9.50;8.70;;;15.20;99.90;;;16.23;97.47;98168.81;5243398;28;20290;-56
2021/09/12 05:51:38;;;;;;;8.60;7.82;;;15.30;99.90;;;16.33;96.07;98175.19;5238110;28;20243;-57
2021/09/12 05:54:11;;;;;;;8.77;7.97;;;15.40;99.90;;;16.36;95.97;98172.75;5231931;28;20207;-55
2021/09/12 05:56:44;;;;;;;9.20;8.50;;;15.40;99.90;;;16.32;96.02;98179.50;5235091;28;20488;-58
2021/09/12 05:59:18;;;;;;;9.23;8.45;;;15.40;99.90;;;16.30;94.95;98177.66;5237475;28;20211;-55
2021/09/12 06:01:52;;;;;;;8.88;8.18;;;15.40;99.90;;;16.34;94.84;98182.09;5237483;28;20220;-62
2021/09/12 06:04:26;;;;;;;8.35;7.65;;;15.40;99.90;;;16.32;94.57;98183.78;5232838;28;20204;-61
2021/09/12 06:06:59;;;;;;;8.35;7.68;;;15.40;99.90;;;16.37;95.04;98183.13;5236692;28;20204;-58
2021/09/12 06:09:32;;;;;;;8.77;8.10;;;15.40;99.90;;;16.26;94.39;98180.94;5240277;28;20314;-53
2021/09/12 06:12:07;;;;;;;9.15;8.35;;;15.40;99.90;;;16.25;94.72;98179.16;5235293;28;20213;-56
2021/09/12 06:14:40;;;;;;;9.30;8.50;;;15.40;99.90;;;16.06;95.30;98180.16;5235498;28;20200;-57
2021/09/12 06:17:14;;;;;;;9.20;8.40;;;15.20;99.90;;;16.25;95.33;98194.66;5235236;28;20743;-54
2021/09/12 06:19:48;;;;;;;9.27;8.45;;;15.40;99.90;;;16.32;95.13;98188.94;5234159;28;20576;-56
2021/09/12 06:22:21;;;;;;;9.00;8.20;;;15.40;99.90;;;16.40;95.48;98192.69;5244334;28;20694;-56
2021/09/12 06:24:54;;;;;;;8.85;7.95;;;15.50;99.90;;;16.52;94.17;98190.59;5241257;28;20648;-59
2021/09/12 06:27:27;;;;;;;9.00;8.20;;;15.60;99.90;;;16.57;94.26;98188.19;5240319;28;20197;-56
2021/09/12 06:30:01;;;;;;;9.18;8.43;;;15.70;99.90;;;16.70;93.92;98186.97;5238967;28;20579;-59
2021/09/12 06:32:36;;;;;;;9.65;8.85;;;15.80;99.90;;;16.74;93.00;98187.16;5242722;28;20630;-58
2021/09/12 06:35:11;;;;;;;9.75;8.80;;;15.80;99.90;;;16.81;92.26;98185.69;5237874;28;20223;-57
2021/09/12 06:37:44;;;;;;;9.05;8.25;;;15.80;99.90;;;16.83;92.53;98179.78;5231506;28;20200;-61
2021/09/12 06:40:17;;;;;;;8.82;8.13;;;15.80;99.90;;;16.87;92.03;98178.19;5246937;28;20628;-55
2021/09/12 06:42:52;;;;;;;8.90;8.20;;;15.90;99.90;;;16.91;92.17;98185.19;5232327;28;20217;-56
2021/09/12 06:45:26;;;;;;;8.65;7.88;;;16.00;99.90;;;16.94;90.47;98182.75;5230129;28;20201;-58
2021/09/12 06:48:01;;;;;;;9.15;8.43;;;15.90;99.90;;;16.96;91.75;98181.09;5223563;28;20201;-61
2021/09/12 06:50:34;;;;;;;9.68;8.88;;;16.00;99.90;;;17.01;90.94;98184.72;5220270;28;20254;-61
2021/09/12 06:53:07;;;;;;;9.70;8.90;;;16.10;99.90;;;17.05;90.62;98181.47;5223241;28;20205;-55
2021/09/12 06:55:40;;;;;;;9.88;9.07;;;16.10;99.90;;;17.11;90.65;98176.50;5238780;28;20207;-53
2021/09/12 06:58:13;;;;;;;8.95;8.25;;;16.10;99.90;;;17.25;89.79;98178.69;5235980;28;20197;-55
2021/09/12 07:00:47;;;;;;;9.98;9.18;;;16.20;99.90;;;17.30;88.95;98183.19;5233306;28;20310;-60
2021/09/12 07:03:21;;;;;;;9.02;8.32;;;16.30;99.90;;;17.36;89.15;98187.72;5240972;28;20231;-57
2021/09/12 07:05:55;;;;;;;10.75;9.85;;;16.30;99.90;;;17.30;88.26;98177.16;5236502;28;20204;-58
2021/09/12 07:08:28;;;;;;;9.85;9.02;;;16.30;99.90;;;17.29;89.67;98189.22;5237521;28;20225;-56
2021/09/12 07:11:01;;;;;;;10.20;9.30;;;16.30;99.90;;;17.24;88.66;98190.75;5233961;28;20229;-56
2021/09/12 07:13:34;;;;;;;10.30;9.50;;;16.30;99.90;;;17.34;89.20;98190.25;5238328;28;20251;-56
2021/09/12 07:16:10;;;;;;;9.93;9.13;;;16.30;99.90;;;17.40;88.91;98194.75;5235529;28;20208;-55
2021/09/12 07:18:45;;;;;;;9.45;8.65;;;16.40;99.90;;;17.54;88.56;98196.13;5242282;28;20193;-55
2021/09/12 07:21:18;;;;;;;9.32;8.52;;;16.50;99.90;;;17.65;87.87;98198.19;5228861;28;20235;-55
2021/09/12 07:23:51;;;;;;;10.07;8.77;;;16.60;99.90;;;17.73;87.84;98195.03;5235184;28;20219;-57
2021/09/12 07:26:24;;;;;;;9.00;8.20;;;16.70;99.90;;;17.75;87.93;98201.16;5236282;28;20193;-56
2021/09/12 07:28:57;;;;;;;9.75;8.95;;;16.70;99.90;;;17.67;87.68;98196.53;5236384;28;20203;-60
2021/09/12 07:31:30;;;;;;;9.32;8.63;;;16.80;99.90;;;17.76;88.35;98199.44;5237639;28;20216;-58
2021/09/12 07:34:05;;;;;;;9.25;8.52;;;16.80;99.90;;;17.90;87.85;98202.53;5238275;28;20206;-57
2021/09/12 07:36:38;;;;;;;9.85;9.05;;;16.90;99.90;;;17.96;87.55;98211.38;5230140;28;20686;-62
2021/09/12 07:39:11;;;;;;;10.82;9.80;;;17.00;99.90;;;17.98;87.90;98211.44;5237528;28;20683;-62
2021/09/12 07:41:44;;;;;;;10.95;10.10;;;17.10;99.90;;;17.97;87.35;98214.84;5233292;28;20217;-62
2021/09/12 07:44:18;;;;;;;10.73;9.75;;;17.00;99.90;;;17.78;88.50;98218.50;5240994;28;20575;-62
2021/09/12 07:46:51;;;;;;;9.45;8.65;;;17.00;99.90;;;17.99;87.70;98214.06;5242138;28;20679;-61
2021/09/12 07:49:25;;;;;;;10.38;9.57;;;17.00;99.90;;;18.04;86.29;98221.09;5241644;28;20201;-61
2021/09/12 07:51:58;;;;;;;10.10;9.30;;;17.00;99.90;;;18.23;84.40;98232.13;5228585;28;20239;-62
2021/09/12 07:54:31;;;;;;;8.55;7.95;;;17.00;99.90;;;18.23;84.94;98220.91;5233277;28;20580;-61
2021/09/12 07:57:05;;;;;;;9.65;8.85;;;17.20;99.90;;;18.41;84.15;98223.19;5239743;28;20749;-62
2021/09/12 07:59:38;;;;;;;9.18;8.38;;;17.30;99.90;;;18.58;83.49;98218.53;5241602;28;20291;-61
2021/09/12 08:02:11;;;;;;;9.45;8.75;;;17.40;99.90;;;18.74;82.72;98220.78;5238304;28;20597;-62
2021/09/12 08:04:46;;;;;;;8.93;8.23;;;17.60;99.90;;;18.98;81.57;98227.56;5245893;28;20567;-62
2021/09/12 08:07:19;;;;;;;8.75;8.05;;;17.80;99.90;;;19.08;80.15;98227.88;5243457;28;20219;-62
2021/09/12 08:09:52;;;;;;;9.68;8.98;;;17.80;99.90;;;19.12;79.50;98221.97;5231147;28;20211;-62
2021/09/12 08:12:25;;;;;;;9.32;8.63;;;17.90;99.90;;;19.32;78.75;98225.13;5234661;28;20219;-62
2021/09/12 08:14:58;;;;;;;9.25;8.55;;;18.00;99.90;;;19.43;78.34;98227.13;5238993;28;20211;-62
2021/09/12 08:17:32;;;;;;;10.38;9.52;;;18.10;99.90;;;19.26;78.70;98232.72;5237573;28;20260;-61
2021/09/12 08:20:08;;;;;;;9.40;8.70;;;18.10;99.90;;;19.38;78.93;98231.31;5231439;28;20237;-62
2021/09/12 08:22:41;;;;;;;9.20;8.50;;;18.20;99.90;;;19.50;78.43;98229.94;5237948;28;20642;-62
2021/09/12 08:25:15;;;;;;;9.05;8.40;;;18.30;99.90;;;19.72;76.58;98230.56;5237491;28;20193;-62
2021/09/12 08:27:48;;;;;;;8.73;8.10;;;18.30;99.90;;;19.77;76.96;98229.84;5242249;28;20207;-62
2021/09/12 08:30:21;;;;;;;9.38;8.57;;;18.40;99.90;;;19.91;76.14;98234.50;5243647;28;20192;-62
2021/09/12 08:32:54;;;;;;;8.85;8.15;;;18.60;99.90;;;19.98;75.87;98244.22;5230034;28;20193;-61
2021/09/12 08:35:29;;;;;;;8.93;8.20;;;18.60;99.90;;;20.23;75.61;98241.41;5235573;28;20207;-61
2021/09/12 08:38:02;;;;;;;8.55;7.95;;;18.90;99.90;;;20.44;74.62;98247.97;5247331;28;20214;-61
2021/09/12 08:40:35;;;;;;;9.73;8.93;;;19.10;99.90;;;20.38;73.43;98246.09;5233153;28;20275;-62
2021/09/12 08:43:09;;;;;;;9.88;9.10;;;19.10;99.90;;;20.25;73.90;98246.63;5241212;28;20228;-60
2021/09/12 08:45:42;;;;;;;9.20;8.48;;;19.10;99.90;;;20.39;72.85;98241.78;5238622;28;20207;-62
2021/09/12 08:48:16;;;;;;;7.47;6.93;;;19.10;99.90;;;20.59;73.15;98245.78;5241845;28;20203;-62
2021/09/12 08:50:50;;;;;;;9.63;8.93;;;19.50;99.90;;;20.67;72.15;98238.16;5235774;28;20601;-60
2021/09/12 08:53:23;;;;;;;7.55;7.05;;;19.80;99.90;;;21.06;71.38;98237.28;5230856;28;20200;-61
2021/09/12 08:55:56;;;;;;;7.15;6.65;;;20.10;99.90;;;21.37;70.52;98236.25;5229346;28;20527;-62
2021/09/12 08:58:30;;;;;;;7.43;6.93;;;20.50;99.90;;;21.49;69.74;98241.72;5234161;28;20209;-61
2021/09/12 09:01:04;;;;;;;8.10;7.60;;;20.60;99.90;;;21.54;69.67;98231.38;5245751;28;20222;-62
2021/09/12 09:03:41;;;;;;;7.70;7.10;;;20.70;99.90;;;21.71;69.61;98240.38;5234333;28;20220;-62
2021/09/12 09:06:18;;;;;;;8.30;7.63;;;21.00;99.90;;;21.91;67.83;98232.06;5240345;28;20200;-62
2021/09/12 09:08:54;;;;;;;7.18;6.43;;;21.30;99.90;;;22.08;67.26;98225.44;5235432;28;20200;-62
2021/09/12 09:11:33;;;;;;;6.25;5.85;;;21.40;99.90;;;22.22;66.27;98228.31;5236491;28;20220;-62
2021/09/12 09:14:15;;;;;;;6.20;5.80;;;21.50;99.90;;;22.28;66.63;98215.41;5242229;28;20195;-62
2021/09/12 09:16:52;;;;;;;7.03;6.43;;;21.70;99.90;;;22.51;66.25;98214.88;5241802;28;20572;-62
2021/09/12 09:19:25;;;;;;;6.30;5.78;;;22.00;99.90;;;22.62;65.66;98215.94;5234563;28;20579;-62
2021/09/12 09:21:59;;;;;;;6.50;6.00;;;22.00;99.90;;;22.79;64.13;98209.22;5237497;28;20243;-61
2021/09/12 09:24:33;;;;;;;6.10;5.70;;;22.00;99.90;;;22.91;64.02;98211.13;5239702;28;20226;-62
2021/09/12 09:27:09;;;;;;;5.70;5.22;;;22.10;99.90;;;23.00;63.58;98206.06;5243036;28;20211;-62
2021/09/12 09:29:42;;;;;;;5.85;5.35;;;22.20;99.90;;;23.09;61.82;98208.81;5240330;28;20196;-62
2021/09/12 09:32:16;;;;;;;5.35;4.95;;;22.30;99.90;;;23.10;60.52;98199.25;5245309;28;20216;-62
2021/09/12 09:34:49;;;;;;;4.82;4.43;;;22.20;99.90;;;23.05;60.70;98193.09;5238071;28;20196;-62
2021/09/12 09:37:23;;;;;;;4.85;4.55;;;22.30;99.90;;;23.15;60.64;98201.06;5232788;28;20724;-63
2021/09/12 09:39:59;;;;;;;4.45;4.05;;;22.50;99.90;;;23.20;57.57;98201.09;5235777;28;20196;-62
2021/09/12 09:42:35;;;;;;;4.05;3.75;;;22.40;99.90;;;23.16;59.26;98192.38;5237939;28;20242;-62
2021/09/12 09:45:10;;;;;;;4.20;3.97;;;22.40;99.90;;;23.27;60.40;98196.88;5240648;28;20311;-61
2021/09/12 09:47:45;;;;;;;4.43;4.13;;;22.60;99.90;;;23.31;58.65;98191.69;5245021;28;20589;-62
2021/09/12 09:50:21;;;;;;;3.50;3.30;;;22.70;99.90;;;23.42;58.48;98190.94;5240912;28;20687;-62
2021/09/12 09:52:57;;;;;;;3.63;3.33;;;22.90;99.90;;;23.53;56.16;98177.16;5234572;28;20567;-61
2021/09/12 09:55:30;;;;;;;3.55;3.30;;;23.00;99.90;;;23.60;55.95;98185.91;5234110;28;20188;-62
2021/09/12 09:58:08;;;;;;;3.42;3.17;;;23.00;99.90;;;23.57;56.22;98180.66;5229661;28;20215;-60
2021/09/12 10:00:41;;;;;;;3.20;3.00;;;22.90;99.90;;;23.49;54.98;98185.78;5241375;28;20216;-62
2021/09/12 10:03:18;;;;;;;3.50;3.30;;;22.80;99.90;;;23.37;56.27;98180.44;5236573;28;20288;-62
2021/09/12 10:05:52;;;;;;;2.72;2.60;;;22.70;99.90;;;23.54;54.99;98173.66;5231112;28;20220;-61
2021/09/12 10:08:27;;;;;;;2.85;2.65;;;23.00;99.90;;;23.67;53.28;98171.22;5240963;28;20203;-64
2021/09/12 10:11:00;;;;;;;2.80;2.60;;;23.10;99.90;;;23.75;51.45;98177.38;5242059;28;20508;-62
2021/09/12 10:13:33;;;;;;;2.97;2.78;;;23.10;99.90;;;23.70;51.35;98166.03;5225252;28;20285;-63
2021/09/12 10:16:08;;;;;;;2.38;2.28;;;22.80;99.90;;;23.73;51.41;98168.69;5229600;28;20271;-63
2021/09/12 10:18:42;;;;;;;2.90;2.72;;;23.00;99.90;;;23.74;53.19;98171.28;5225744;28;20578;-62
2021/09/12 10:21:24;;;;;;;3.35;3.05;;;23.10;99.90;;;23.78;53.26;98165.25;5239315;28;20607;-63
2021/09/12 10:24:06;;;;;;;3.85;3.58;;;23.00;99.90;;;23.67;54.65;98168.59;5231939;28;20225;-63
2021/09/12 10:26:41;;;;;;;3.50;3.30;;;22.90;99.90;;;23.69;55.65;98161.63;5230640;28;20387;-63
2021/09/12 10:29:50;;;;;;;3.78;3.47;;;23.00;99.90;;;23.75;56.18;98162.63;5233626;28;20207;-63
2021/09/12 10:32:34;;;;;;;3.50;3.25;;;23.10;99.90;;;23.93;55.29;98155.81;5231547;28;20214;-62
2021/09/12 10:35:21;;;;;;;3.42;3.22;;;23.40;99.90;;;23.94;55.23;98152.34;5241236;28;20211;-62
2021/09/12 10:37:58;;;;;;;3.38;3.17;;;23.30;99.90;;;23.95;53.90;98151.47;5238495;28;20707;-62
2021/09/12 10:41:14;;;;;;;3.10;2.90;;;23.20;99.90;;;24.06;53.65;98152.44;5242810;28;20226;-62
2021/09/12 10:43:52;;;;;;;2.97;2.78;;;23.40;99.90;;;23.96;52.71;98154.09;5242352;28;20204;-59